createdAt,value
2023-06-23T00:00:38.856Z,0.75
2023-06-23T00:01:38.954Z,0.74
2023-06-23T00:02:38.954Z,0.74
2023-06-23T00:03:38.971Z,0.73
2023-06-23T00:04:38.967Z,0.65
2023-06-23T00:05:39.021Z,0.62
2023-06-23T00:06:39.069Z,0.60
2023-06-23T00:07:39.076Z,0.58
2023-06-23T00:08:39.062Z,0.59
2023-06-23T00:09:39.106Z,0.58
2023-06-23T00:10:39.112Z,0.56
2023-06-23T00:11:39.124Z,0.55
2023-06-23T00:12:39.126Z,0.55
2023-06-23T00:13:39.136Z,0.56
2023-06-23T00:14:39.136Z,0.56
2023-06-23T00:15:39.148Z,0.56
2023-06-23T00:16:39.152Z,0.57
2023-06-23T00:17:39.144Z,0.57
2023-06-23T00:18:39.139Z,0.58
2023-06-23T00:19:39.162Z,0.59
2023-06-23T00:20:39.176Z,0.60
2023-06-23T00:21:39.187Z,0.61
2023-06-23T00:22:39.180Z,0.61
2023-06-23T00:23:39.198Z,0.61
2023-06-23T00:24:39.224Z,0.61
2023-06-23T00:25:39.241Z,0.62
2023-06-23T00:26:39.274Z,0.63
2023-06-23T00:27:39.294Z,0.64
2023-06-23T00:28:39.312Z,0.64
2023-06-23T00:29:39.338Z,0.63
2023-06-23T00:30:39.369Z,0.64
2023-06-23T00:31:39.436Z,0.65
2023-06-23T00:32:39.394Z,0.64
2023-06-23T00:33:39.348Z,0.67
2023-06-23T00:34:39.378Z,0.66
2023-06-23T00:35:39.373Z,0.68
2023-06-23T00:36:39.362Z,0.67
2023-06-23T00:37:39.387Z,0.67
2023-06-23T00:38:39.463Z,0.68
2023-06-23T00:39:39.359Z,0.70
2023-06-23T00:40:39.379Z,0.70
2023-06-23T00:41:39.421Z,0.69
2023-06-23T00:42:39.410Z,0.69
2023-06-23T00:43:39.414Z,0.70
2023-06-23T00:44:39.436Z,0.69
2023-06-23T00:45:39.457Z,0.72
2023-06-23T00:46:39.451Z,0.74
2023-06-23T00:47:39.494Z,0.74
2023-06-23T00:48:39.463Z,0.74
2023-06-23T00:49:39.529Z,0.75
2023-06-23T00:50:39.520Z,0.75
2023-06-23T00:51:39.513Z,0.74
2023-06-23T00:52:39.502Z,0.71
2023-06-23T00:53:39.513Z,0.71
2023-06-23T00:54:39.533Z,0.70
2023-06-23T00:55:39.521Z,0.71
2023-06-23T00:56:39.516Z,0.73
2023-06-23T00:57:39.539Z,0.72
2023-06-23T00:58:39.540Z,0.71
2023-06-23T00:59:39.489Z,0.72
2023-06-23T01:00:39.505Z,0.72
2023-06-23T01:01:39.518Z,0.74
2023-06-23T01:02:39.633Z,0.73
2023-06-23T01:03:39.555Z,0.74
2023-06-23T01:04:39.635Z,0.76
2023-06-23T01:05:39.495Z,0.74
2023-06-23T01:06:39.530Z,0.73
2023-06-23T01:07:39.494Z,0.72
2023-06-23T01:08:39.527Z,0.73
2023-06-23T01:09:39.510Z,0.73
2023-06-23T01:10:39.518Z,0.70
2023-06-23T01:11:39.510Z,0.73
2023-06-23T01:12:39.535Z,0.73
2023-06-23T01:13:39.529Z,0.73
2023-06-23T01:14:39.543Z,0.74
2023-06-23T01:15:39.533Z,0.73
2023-06-23T01:16:39.569Z,0.74
2023-06-23T01:17:39.667Z,0.74
2023-06-23T01:18:39.585Z,0.71
2023-06-23T01:19:39.641Z,0.70
2023-06-23T01:20:39.636Z,0.71
2023-06-23T01:21:39.642Z,0.71
2023-06-23T01:22:39.697Z,0.72
2023-06-23T01:23:39.711Z,0.70
2023-06-23T01:24:39.716Z,0.71
2023-06-23T01:25:39.750Z,0.73
2023-06-23T01:26:39.732Z,0.72
2023-06-23T01:27:39.744Z,0.72
2023-06-23T01:28:39.760Z,0.72
2023-06-23T01:29:39.785Z,0.71
2023-06-23T01:30:39.826Z,0.72
2023-06-23T01:31:39.897Z,0.71
2023-06-23T01:32:39.887Z,0.71
2023-06-23T01:33:39.894Z,0.69
2023-06-23T01:34:39.931Z,0.69
2023-06-23T01:35:39.960Z,0.69
2023-06-23T01:36:40.003Z,0.69
2023-06-23T01:37:40.023Z,0.70
2023-06-23T01:38:40.051Z,0.68
2023-06-23T01:39:40.073Z,0.67
2023-06-23T01:40:40.086Z,0.67
2023-06-23T01:41:40.092Z,0.66
2023-06-23T01:42:40.143Z,0.66
2023-06-23T01:43:40.152Z,0.66
2023-06-23T01:44:40.183Z,0.64
2023-06-23T01:45:40.201Z,0.67
2023-06-23T01:46:40.323Z,0.66
2023-06-23T01:47:40.247Z,0.65
2023-06-23T01:48:40.242Z,0.66
2023-06-23T01:49:40.273Z,0.66
2023-06-23T01:50:40.282Z,0.65
2023-06-23T01:51:40.299Z,0.66
2023-06-23T01:52:40.348Z,0.68
2023-06-23T01:53:40.376Z,0.67
2023-06-23T01:54:40.399Z,0.65
2023-06-23T01:55:40.430Z,0.66
2023-06-23T01:56:40.488Z,0.67
2023-06-23T01:57:40.474Z,0.67
2023-06-23T01:58:40.521Z,0.66
2023-06-23T01:59:40.555Z,0.65
2023-06-23T02:00:40.620Z,0.64
2023-06-23T02:01:40.794Z,0.64
2023-06-23T02:02:40.729Z,0.64
2023-06-23T02:03:40.880Z,0.64
2023-06-23T02:04:40.696Z,0.65
2023-06-23T02:05:40.715Z,0.65
2023-06-23T02:06:40.800Z,0.64
2023-06-23T02:07:40.785Z,0.65
2023-06-23T02:08:40.796Z,0.63
2023-06-23T02:09:40.845Z,0.63
2023-06-23T02:10:40.883Z,0.64
2023-06-23T02:11:40.940Z,0.61
2023-06-23T02:12:40.948Z,0.60
2023-06-23T02:13:40.989Z,0.59
2023-06-23T02:14:41.044Z,0.59
2023-06-23T02:15:41.087Z,0.57
2023-06-23T02:16:41.113Z,0.57
2023-06-23T02:17:41.149Z,0.55
2023-06-23T02:18:41.174Z,0.54
2023-06-23T02:19:41.204Z,0.54
2023-06-23T02:20:41.250Z,0.54
2023-06-23T02:21:41.260Z,0.52
2023-06-23T02:22:41.310Z,0.52
2023-06-23T02:23:41.357Z,0.52
2023-06-23T02:24:41.372Z,0.52
2023-06-23T02:25:41.413Z,0.53
2023-06-23T02:26:41.434Z,0.52
2023-06-23T02:27:41.461Z,0.52
2023-06-23T02:28:41.492Z,0.50
2023-06-23T02:29:41.559Z,0.52
2023-06-23T02:30:41.603Z,0.52
2023-06-23T02:31:41.726Z,0.51
2023-06-23T02:32:41.790Z,0.52
2023-06-23T02:33:41.782Z,0.51
2023-06-23T02:34:41.824Z,0.51
2023-06-23T02:35:41.866Z,0.51
2023-06-23T02:36:41.930Z,0.51
2023-06-23T02:37:41.975Z,0.51
2023-06-23T02:38:42.031Z,0.50
2023-06-23T02:39:42.080Z,0.50
2023-06-23T02:40:42.138Z,0.51
2023-06-23T02:41:42.162Z,0.51
2023-06-23T02:42:42.228Z,0.50
2023-06-23T02:43:42.282Z,0.50
2023-06-23T02:44:42.320Z,0.51
2023-06-23T02:45:42.456Z,0.51
2023-06-23T02:46:42.436Z,0.50
2023-06-23T02:47:42.502Z,0.50
2023-06-23T02:48:42.563Z,0.50
2023-06-23T02:49:42.631Z,0.52
2023-06-23T02:50:42.681Z,0.53
2023-06-23T02:51:42.711Z,0.50
2023-06-23T02:52:42.739Z,0.51
2023-06-23T02:53:42.797Z,0.52
2023-06-23T02:54:42.839Z,0.51
2023-06-23T02:55:42.848Z,0.51
2023-06-23T02:56:42.893Z,0.50
2023-06-23T02:57:42.951Z,0.52
2023-06-23T02:58:42.965Z,0.52
2023-06-23T02:59:43.084Z,0.53
2023-06-23T03:00:43.055Z,0.52
2023-06-23T03:01:43.164Z,0.52
2023-06-23T03:02:43.267Z,0.54
2023-06-23T03:03:43.240Z,0.54
2023-06-23T03:04:43.298Z,0.57
2023-06-23T03:05:43.290Z,0.57
2023-06-23T03:06:43.335Z,0.58
2023-06-23T03:07:43.390Z,0.57
2023-06-23T03:08:43.411Z,0.59
2023-06-23T03:09:43.462Z,0.59
2023-06-23T03:10:43.514Z,0.60
2023-06-23T03:11:43.531Z,0.58
2023-06-23T03:12:43.587Z,0.57
2023-06-23T03:13:43.617Z,0.57
2023-06-23T03:14:43.690Z,0.56
2023-06-23T03:15:43.705Z,0.58
2023-06-23T03:16:43.778Z,0.58
2023-06-23T03:17:43.803Z,0.59
2023-06-23T03:18:43.861Z,0.62
2023-06-23T03:19:43.926Z,0.64
2023-06-23T03:20:43.940Z,0.65
2023-06-23T03:21:43.981Z,0.66
2023-06-23T03:22:44.030Z,0.67
2023-06-23T03:23:44.041Z,0.71
2023-06-23T03:24:44.070Z,0.70
2023-06-23T03:25:44.146Z,0.72
2023-06-23T03:26:44.201Z,0.73
2023-06-23T03:27:44.243Z,0.75
2023-06-23T03:28:44.348Z,0.76
2023-06-23T03:29:44.381Z,0.79
2023-06-23T03:30:44.534Z,0.80
2023-06-23T03:31:44.462Z,0.82
2023-06-23T03:32:44.561Z,0.84
2023-06-23T03:33:44.544Z,0.87
2023-06-23T03:34:44.582Z,0.87
2023-06-23T03:35:44.665Z,0.90
2023-06-23T03:36:44.627Z,0.90
2023-06-23T03:37:44.682Z,0.91
2023-06-23T03:38:44.770Z,0.95
2023-06-23T03:39:44.792Z,0.99
2023-06-23T03:40:44.854Z,1.03
2023-06-23T03:41:44.854Z,1.06
2023-06-23T03:42:44.900Z,1.09
2023-06-23T03:43:44.931Z,1.10
2023-06-23T03:44:44.955Z,1.11
2023-06-23T03:45:44.969Z,1.09
2023-06-23T03:46:45.047Z,1.10
2023-06-23T03:47:45.119Z,1.14
2023-06-23T03:48:44.978Z,1.13
2023-06-23T03:49:44.992Z,1.14
2023-06-23T03:50:44.971Z,1.12
2023-06-23T03:51:45.023Z,1.09
2023-06-23T03:52:45.036Z,1.09
2023-06-23T03:53:45.073Z,1.09
2023-06-23T03:54:45.106Z,1.07
2023-06-23T03:55:45.139Z,1.11
2023-06-23T03:56:45.142Z,1.11
2023-06-23T03:57:45.166Z,1.10
2023-06-23T03:58:45.173Z,1.15
2023-06-23T03:59:45.191Z,1.09
2023-06-23T04:00:45.200Z,1.11
2023-06-23T04:01:45.266Z,1.11
2023-06-23T04:02:45.286Z,1.10
2023-06-23T04:03:45.275Z,1.11
2023-06-23T04:04:45.216Z,1.13
2023-06-23T04:05:45.202Z,1.14
2023-06-23T04:06:45.215Z,1.10
2023-06-23T04:07:45.251Z,1.09
2023-06-23T04:08:45.324Z,1.12
2023-06-23T04:09:45.359Z,1.12
2023-06-23T04:10:45.416Z,1.14
2023-06-23T04:11:45.413Z,1.13
2023-06-23T04:12:45.431Z,1.14
2023-06-23T04:13:45.431Z,1.13
2023-06-23T04:14:45.446Z,1.11
2023-06-23T04:15:45.449Z,1.08
2023-06-23T04:16:45.420Z,1.09
2023-06-23T04:17:45.481Z,1.10
2023-06-23T04:18:45.439Z,1.11
2023-06-23T04:19:45.450Z,1.14
2023-06-23T04:20:45.425Z,1.16
2023-06-23T04:21:45.442Z,1.15
2023-06-23T04:22:45.492Z,1.14
2023-06-23T04:23:45.427Z,1.09
2023-06-23T04:24:45.443Z,1.10
2023-06-23T04:25:45.405Z,1.08
2023-06-23T04:26:45.457Z,1.06
2023-06-23T04:27:45.419Z,1.04
2023-06-23T04:28:45.436Z,1.05
2023-06-23T04:29:45.420Z,1.03
2023-06-23T04:30:45.449Z,1.03
2023-06-23T04:31:45.431Z,1.02
2023-06-23T04:32:45.587Z,1.06
2023-06-23T04:33:45.396Z,1.06
2023-06-23T04:34:45.410Z,1.05
2023-06-23T04:35:45.401Z,1.04
2023-06-23T04:36:45.405Z,1.04
2023-06-23T04:37:45.431Z,1.03
2023-06-23T04:38:45.410Z,1.04
2023-06-23T04:39:45.399Z,1.03
2023-06-23T04:40:45.380Z,1.01
2023-06-23T04:41:45.404Z,1.02
2023-06-23T04:42:45.411Z,1.01
2023-06-23T04:43:45.439Z,1.02
2023-06-23T04:44:45.395Z,1.05
2023-06-23T04:45:45.459Z,1.06
2023-06-23T04:46:45.461Z,1.10
2023-06-23T04:47:45.468Z,1.08
2023-06-23T04:48:45.476Z,1.04
2023-06-23T04:49:45.520Z,1.06
2023-06-23T04:50:45.506Z,1.07
2023-06-23T04:51:45.532Z,1.10
2023-06-23T04:52:45.516Z,1.11
2023-06-23T04:53:45.506Z,1.11
2023-06-23T04:54:45.529Z,1.13
2023-06-23T04:55:45.531Z,1.13
2023-06-23T04:56:45.536Z,1.16
2023-06-23T04:57:45.514Z,1.17
2023-06-23T04:58:45.562Z,1.19
2023-06-23T04:59:45.552Z,1.19
2023-06-23T05:00:45.515Z,1.19
2023-06-23T05:01:45.723Z,1.19
2023-06-23T05:02:45.599Z,1.18
2023-06-23T05:03:45.619Z,1.18
2023-06-23T05:04:45.597Z,1.19
2023-06-23T05:05:45.564Z,1.18
2023-06-23T05:06:45.583Z,1.19
2023-06-23T05:07:45.584Z,1.18
2023-06-23T05:08:45.596Z,1.18
2023-06-23T05:09:45.581Z,1.20
2023-06-23T05:10:45.607Z,1.22
2023-06-23T05:11:45.641Z,1.21
2023-06-23T05:12:45.673Z,1.23
2023-06-23T05:13:45.690Z,1.22
2023-06-23T05:14:45.699Z,1.24
2023-06-23T05:15:45.721Z,1.24
2023-06-23T05:16:45.759Z,1.25
2023-06-23T05:17:45.795Z,1.24
2023-06-23T05:18:45.777Z,1.24
2023-06-23T05:19:45.798Z,1.24
2023-06-23T05:20:45.811Z,1.25
2023-06-23T05:21:45.822Z,1.25
2023-06-23T05:22:45.843Z,1.26
2023-06-23T05:23:52.864Z,1.24
2023-06-23T05:24:46.855Z,1.24
2023-06-23T05:25:45.845Z,1.23
2023-06-23T05:26:45.854Z,1.20
2023-06-23T05:27:45.835Z,1.22
2023-06-23T05:28:45.834Z,1.24
2023-06-23T05:29:45.788Z,1.24
2023-06-23T05:30:45.842Z,1.21
2023-06-23T05:31:45.851Z,1.22
2023-06-23T05:32:45.933Z,1.21
2023-06-23T05:33:45.774Z,1.20
2023-06-23T05:34:45.763Z,1.21
2023-06-23T05:35:47.998Z,1.21
2023-06-23T05:36:45.772Z,1.22
2023-06-23T05:37:45.737Z,1.27
2023-06-23T05:38:45.753Z,1.29
2023-06-23T05:39:45.746Z,1.34
2023-06-23T05:40:45.733Z,1.34
2023-06-23T05:41:45.747Z,1.38
2023-06-23T05:42:45.722Z,1.43
2023-06-23T05:43:45.708Z,1.52
2023-06-23T05:44:45.695Z,1.59
2023-06-23T05:45:45.905Z,1.62
2023-06-23T05:46:45.774Z,1.69
2023-06-23T05:47:45.707Z,1.74
2023-06-23T05:48:45.704Z,1.90
2023-06-23T05:49:48.133Z,2.06
2023-06-23T05:50:45.799Z,2.06
2023-06-23T05:51:45.817Z,2.09
2023-06-23T05:52:45.786Z,2.15
2023-06-23T05:53:45.783Z,2.27
2023-06-23T05:54:45.774Z,2.54
2023-06-23T05:55:45.795Z,2.71
2023-06-23T05:56:45.840Z,2.75
2023-06-23T05:57:45.828Z,2.89
2023-06-23T05:58:45.830Z,3.00
2023-06-23T05:59:45.832Z,3.17
2023-06-23T06:00:45.877Z,3.12
2023-06-23T06:01:45.830Z,3.06
2023-06-23T06:02:45.892Z,3.09
2023-06-23T06:03:45.985Z,3.04
2023-06-23T06:04:45.870Z,2.87
2023-06-23T06:05:45.826Z,2.93
2023-06-23T06:06:45.827Z,2.92
2023-06-23T06:07:45.856Z,2.86
2023-06-23T06:08:45.855Z,2.83
2023-06-23T06:09:45.854Z,2.78
2023-06-23T06:10:45.832Z,2.90
2023-06-23T06:11:45.802Z,2.84
2023-06-23T06:12:46.836Z,2.93
2023-06-23T06:13:45.837Z,2.96
2023-06-23T06:14:45.858Z,3.00
2023-06-23T06:15:45.818Z,3.20
2023-06-23T06:16:45.836Z,3.31
2023-06-23T06:17:45.874Z,3.27
2023-06-23T06:18:45.836Z,3.15
2023-06-23T06:19:45.877Z,3.00
2023-06-23T06:20:45.845Z,2.79
2023-06-23T06:21:45.842Z,2.80
2023-06-23T06:22:45.883Z,2.84
2023-06-23T06:23:45.924Z,2.86
2023-06-23T06:24:46.373Z,2.90
2023-06-23T06:25:46.056Z,2.97
2023-06-23T06:26:46.090Z,2.95
2023-06-23T06:27:46.105Z,2.87
2023-06-23T06:28:46.162Z,3.08
2023-06-23T06:29:46.230Z,3.14
2023-06-23T06:30:46.258Z,3.15
2023-06-23T06:31:46.305Z,3.05
2023-06-23T06:32:46.345Z,3.21
2023-06-23T06:33:46.390Z,3.26
2023-06-23T06:34:46.440Z,3.22
2023-06-23T06:35:46.485Z,3.16
2023-06-23T06:36:46.549Z,3.11
2023-06-23T06:37:46.575Z,3.04
2023-06-23T06:38:46.638Z,2.96
2023-06-23T06:39:46.669Z,2.89
2023-06-23T06:40:46.712Z,2.93
2023-06-23T06:41:46.746Z,2.92
2023-06-23T06:42:46.770Z,2.95
2023-06-23T06:43:46.815Z,2.89
2023-06-23T06:44:46.857Z,2.87
2023-06-23T06:45:46.893Z,2.97
2023-06-23T06:46:47.019Z,3.22
2023-06-23T06:47:47.052Z,3.35
2023-06-23T06:48:47.097Z,3.43
2023-06-23T06:49:47.196Z,3.36
2023-06-23T06:50:47.216Z,3.35
2023-06-23T06:51:47.248Z,3.23
2023-06-23T06:52:47.267Z,3.26
2023-06-23T06:53:47.281Z,3.34
2023-06-23T06:54:47.283Z,3.27
2023-06-23T06:55:47.251Z,3.39
2023-06-23T06:56:47.288Z,3.45
2023-06-23T06:57:47.346Z,3.44
2023-06-23T06:58:47.380Z,3.61
2023-06-23T06:59:47.431Z,3.69
2023-06-23T07:00:47.536Z,3.62
2023-06-23T07:01:47.707Z,3.70
2023-06-23T07:02:47.647Z,3.71
2023-06-23T07:03:47.738Z,3.92
2023-06-23T07:04:47.734Z,3.75
2023-06-23T07:05:47.773Z,3.66
2023-06-23T07:06:47.797Z,3.73
2023-06-23T07:07:47.902Z,3.79
2023-06-23T07:08:47.897Z,3.85
2023-06-23T07:09:47.962Z,3.82
2023-06-23T07:10:48.007Z,3.69
2023-06-23T07:11:48.047Z,3.62
2023-06-23T07:12:48.083Z,3.73
2023-06-23T07:13:48.140Z,3.73
2023-06-23T07:14:48.188Z,3.81
2023-06-23T07:15:48.278Z,3.84
2023-06-23T07:16:48.280Z,3.85
2023-06-23T07:17:48.369Z,3.99
2023-06-23T07:18:48.387Z,4.09
2023-06-23T07:19:48.429Z,4.17
2023-06-23T07:20:48.509Z,4.26
2023-06-23T07:21:48.514Z,4.33
2023-06-23T07:22:48.591Z,4.36
2023-06-23T07:23:48.627Z,4.48
2023-06-23T07:24:48.691Z,4.57
2023-06-23T07:25:48.761Z,4.64
2023-06-23T07:26:48.781Z,4.71
2023-06-23T07:27:48.865Z,4.80
2023-06-23T07:28:48.914Z,4.78
2023-06-23T07:29:48.957Z,4.89
2023-06-23T07:30:49.199Z,5.00
2023-06-23T07:31:49.151Z,4.97
2023-06-23T07:32:49.195Z,5.07
2023-06-23T07:33:49.486Z,5.03
2023-06-23T07:34:49.242Z,5.17
2023-06-23T07:35:49.317Z,4.99
2023-06-23T07:36:49.344Z,5.11
2023-06-23T07:37:49.426Z,5.00
2023-06-23T07:38:49.455Z,5.27
2023-06-23T07:39:49.492Z,5.13
2023-06-23T07:40:49.463Z,4.93
2023-06-23T07:41:50.262Z,5.10
2023-06-23T07:42:49.713Z,5.28
2023-06-23T07:43:49.607Z,5.24
2023-06-23T07:44:49.678Z,4.94
2023-06-23T07:45:49.839Z,4.53
2023-06-23T07:46:49.818Z,4.17
2023-06-23T07:47:49.864Z,4.10
2023-06-23T07:48:49.876Z,4.28
2023-06-23T07:49:49.998Z,4.02
2023-06-23T07:50:50.004Z,3.99
2023-06-23T07:51:50.045Z,4.20
2023-06-23T07:52:50.121Z,4.10
2023-06-23T07:54:05.329Z,4.00
2023-06-23T07:54:51.194Z,3.96
2023-06-23T07:55:50.171Z,3.69
2023-06-23T07:56:50.160Z,3.55
2023-06-23T07:57:50.141Z,3.49
2023-06-23T07:58:50.139Z,3.24
2023-06-23T07:59:50.132Z,3.22
2023-06-23T08:00:50.125Z,3.22
2023-06-23T08:01:50.105Z,3.15
2023-06-23T08:02:50.290Z,3.06
2023-06-23T08:03:50.199Z,3.15
2023-06-23T08:04:50.228Z,3.13
2023-06-23T08:05:50.371Z,3.08
2023-06-23T08:06:50.313Z,3.03
2023-06-23T08:07:50.390Z,2.99
2023-06-23T08:08:50.422Z,2.88
2023-06-23T08:09:50.465Z,2.92
2023-06-23T08:10:50.491Z,2.80
2023-06-23T08:11:50.499Z,2.85
2023-06-23T08:12:50.568Z,2.87
2023-06-23T08:13:50.611Z,2.77
2023-06-23T08:14:50.700Z,2.77
2023-06-23T08:15:50.764Z,2.70
2023-06-23T08:16:50.862Z,2.67
2023-06-23T08:17:51.715Z,2.69
2023-06-23T08:18:50.853Z,2.61
2023-06-23T08:19:50.920Z,2.65
2023-06-23T08:20:50.922Z,2.60
2023-06-23T08:21:51.019Z,2.52
2023-06-23T08:22:50.920Z,2.45
2023-06-23T08:23:50.950Z,2.53
2023-06-23T08:24:51.166Z,2.54
2023-06-23T08:25:50.990Z,2.49
2023-06-23T08:26:51.020Z,2.53
2023-06-23T08:27:51.097Z,2.51
2023-06-23T08:28:51.146Z,2.54
2023-06-23T08:29:51.237Z,2.57
2023-06-23T08:30:51.386Z,2.68
2023-06-23T08:31:51.447Z,2.61
2023-06-23T08:32:51.437Z,2.70
2023-06-23T08:33:51.464Z,2.67
2023-06-23T08:34:51.558Z,2.69
2023-06-23T08:35:51.674Z,2.74
2023-06-23T08:36:51.622Z,2.78
2023-06-23T08:37:51.690Z,2.63
2023-06-23T08:38:51.766Z,2.58
2023-06-23T08:39:51.849Z,2.51
2023-06-23T08:40:51.853Z,2.39
2023-06-23T08:41:51.888Z,2.34
2023-06-23T08:42:51.899Z,2.29
2023-06-23T08:43:51.880Z,2.11
2023-06-23T08:44:51.930Z,2.09
2023-06-23T08:45:51.901Z,2.08
2023-06-23T08:47:04.759Z,2.02
2023-06-23T08:47:53.044Z,2.02
2023-06-23T08:48:51.936Z,2.01
2023-06-23T08:49:51.892Z,1.98
2023-06-23T08:51:46.257Z,0.50
2023-06-23T08:52:46.265Z,0.50
2023-06-23T08:53:46.272Z,0.50
2023-06-23T08:54:46.233Z,0.50
2023-06-23T08:55:46.255Z,0.50
2023-06-23T08:56:46.213Z,0.50
2023-06-23T08:57:46.226Z,0.50
2023-06-23T08:58:46.266Z,0.52
2023-06-23T08:59:46.228Z,0.51
2023-06-23T09:00:46.229Z,0.50
2023-06-23T09:01:46.256Z,0.50
2023-06-23T09:02:46.301Z,0.50
2023-06-23T09:03:46.191Z,0.50
2023-06-23T09:04:46.171Z,0.51
2023-06-23T09:05:46.170Z,0.50
2023-06-23T09:06:46.138Z,0.51
2023-06-23T09:07:46.151Z,0.50
2023-06-23T09:08:46.217Z,0.51
2023-06-23T09:09:46.232Z,0.50
2023-06-23T09:10:46.223Z,0.51
2023-06-23T09:11:46.198Z,0.51
2023-06-23T09:12:46.188Z,0.52
2023-06-23T09:13:46.190Z,0.52
2023-06-23T09:14:46.191Z,0.51
2023-06-23T09:16:00.840Z,0.50
2023-06-23T09:16:47.206Z,0.50
2023-06-23T09:17:46.236Z,0.49
2023-06-23T09:18:46.180Z,0.47
2023-06-23T09:19:46.159Z,0.46
2023-06-23T09:20:47.113Z,0.44
2023-06-23T09:21:46.198Z,0.50
2023-06-23T09:22:46.115Z,0.50
2023-06-23T09:23:46.125Z,0.51
2023-06-23T09:24:46.121Z,0.51
2023-06-23T09:25:46.117Z,0.50
2023-06-23T09:26:46.120Z,0.51
2023-06-23T09:27:46.139Z,0.51
2023-06-23T09:28:46.155Z,0.51
2023-06-23T09:29:46.155Z,0.52
2023-06-23T09:30:46.159Z,0.53
2023-06-23T09:31:46.148Z,0.53
2023-06-23T09:32:46.217Z,0.54
2023-06-23T09:33:46.185Z,0.54
2023-06-23T09:34:46.201Z,0.57
2023-06-23T09:35:46.218Z,0.59
2023-06-23T09:36:46.218Z,0.58
2023-06-23T09:37:46.217Z,0.59
2023-06-23T09:38:46.246Z,0.61
2023-06-23T09:39:46.259Z,0.60
2023-06-23T09:40:46.272Z,0.62
2023-06-23T09:41:52.538Z,0.62
2023-06-23T09:42:47.297Z,0.62
2023-06-23T09:43:46.290Z,0.63
2023-06-23T09:44:46.292Z,0.66
2023-06-23T09:45:46.243Z,0.76
2023-06-23T09:46:46.251Z,0.84
2023-06-23T09:47:46.290Z,0.86
2023-06-23T09:48:46.256Z,0.94
2023-06-23T09:49:46.238Z,1.01
2023-06-23T09:50:46.242Z,1.02
2023-06-23T09:51:46.230Z,1.04
2023-06-23T09:52:46.237Z,1.11
2023-06-23T09:53:46.206Z,1.10
2023-06-23T09:54:46.239Z,1.17
2023-06-23T09:55:46.199Z,1.15
2023-06-23T09:56:46.177Z,1.23
2023-06-23T09:57:46.389Z,1.19
2023-06-23T09:58:46.211Z,1.21
2023-06-23T09:59:46.221Z,1.24
2023-06-23T10:00:46.187Z,1.25
2023-06-23T10:01:46.165Z,1.23
2023-06-23T10:02:47.029Z,1.27
2023-06-23T10:03:46.408Z,1.31
2023-06-23T10:04:46.294Z,1.32
2023-06-23T10:05:46.341Z,1.29
2023-06-23T10:06:46.397Z,1.38
2023-06-23T10:07:46.467Z,1.47
2023-06-23T10:08:46.565Z,1.56
2023-06-23T10:09:46.585Z,1.62
2023-06-23T10:10:46.660Z,1.52
2023-06-23T10:11:46.697Z,1.52
2023-06-23T10:12:46.757Z,1.61
2023-06-23T10:13:46.982Z,1.67
2023-06-23T10:14:46.904Z,1.62
2023-06-23T10:15:46.911Z,1.60
2023-06-23T10:16:46.931Z,1.55
2023-06-23T10:17:46.994Z,1.57
2023-06-23T10:18:47.094Z,1.55
2023-06-23T10:19:47.091Z,1.53
2023-06-23T10:20:47.133Z,1.70
2023-06-23T10:21:47.165Z,1.65
2023-06-23T10:22:47.240Z,1.59
2023-06-23T10:23:47.211Z,1.61
2023-06-23T10:24:47.266Z,1.55
2023-06-23T10:25:47.290Z,1.56
2023-06-23T10:26:47.292Z,1.58
2023-06-23T10:27:47.330Z,1.71
2023-06-23T10:28:47.314Z,1.74
2023-06-23T10:29:47.366Z,1.80
2023-06-23T10:30:47.359Z,1.80
2023-06-23T10:31:47.415Z,1.84
2023-06-23T10:32:47.448Z,1.98
2023-06-23T10:33:47.402Z,2.08
2023-06-23T10:34:47.458Z,2.09
2023-06-23T10:35:47.492Z,2.10
2023-06-23T10:36:47.492Z,1.97
2023-06-23T10:37:47.582Z,2.00
2023-06-23T10:38:47.609Z,2.13
2023-06-23T10:39:47.631Z,1.65
2023-06-23T10:40:47.722Z,1.72
2023-06-23T10:41:47.713Z,2.01
2023-06-23T10:42:47.783Z,2.10
2023-06-23T10:43:47.774Z,2.16
2023-06-23T10:44:47.830Z,2.19
2023-06-23T10:45:47.826Z,2.26
2023-06-23T10:46:47.888Z,2.35
2023-06-23T10:47:48.026Z,2.57
2023-06-23T10:48:47.985Z,2.63
2023-06-23T10:49:48.060Z,2.78
2023-06-23T10:50:48.068Z,2.83
2023-06-23T10:51:48.139Z,2.92
2023-06-23T10:52:48.160Z,2.95
2023-06-23T10:53:48.220Z,3.08
2023-06-23T10:54:48.323Z,3.17
2023-06-23T10:56:07.730Z,3.30
2023-06-23T10:56:49.371Z,3.30
2023-06-23T10:57:48.324Z,3.31
2023-06-23T10:58:48.329Z,3.35
2023-06-23T10:59:48.339Z,3.38
2023-06-23T11:00:48.362Z,3.36
2023-06-23T11:01:48.329Z,3.48
2023-06-23T11:02:48.319Z,3.36
2023-06-23T11:03:48.267Z,3.44
2023-06-23T11:04:48.333Z,3.47
2023-06-23T11:05:48.308Z,3.49
2023-06-23T11:06:48.390Z,3.45
2023-06-23T11:07:48.355Z,3.46
2023-06-23T11:08:48.401Z,3.54
2023-06-23T11:09:48.490Z,3.52
2023-06-23T11:10:48.512Z,3.48
2023-06-23T11:11:48.491Z,3.48
2023-06-23T11:12:48.522Z,3.58
2023-06-23T11:13:48.578Z,3.61
2023-06-23T11:14:48.664Z,3.55
2023-06-23T11:15:48.622Z,3.48
2023-06-23T11:16:48.680Z,3.58
2023-06-23T11:17:48.884Z,3.60
2023-06-23T11:18:48.819Z,3.44
2023-06-23T11:19:48.863Z,3.39
2023-06-23T11:20:48.940Z,3.37
2023-06-23T11:21:48.974Z,3.35
2023-06-23T11:22:48.993Z,3.36
2023-06-23T11:23:49.074Z,3.29
2023-06-23T11:24:49.130Z,3.27
2023-06-23T11:25:49.163Z,3.27
2023-06-23T11:26:49.175Z,3.30
2023-06-23T11:27:49.212Z,3.27
2023-06-23T11:28:49.277Z,3.32
2023-06-23T11:29:49.299Z,3.25
2023-06-23T11:30:49.378Z,3.37
2023-06-23T11:31:49.366Z,3.34
2023-06-23T11:32:49.419Z,3.02
2023-06-23T11:33:49.459Z,2.76
2023-06-23T11:34:49.485Z,2.64
2023-06-23T11:35:49.489Z,2.59
2023-06-23T11:36:49.526Z,2.53
2023-06-23T11:37:49.540Z,2.49
2023-06-23T11:38:49.570Z,2.43
2023-06-23T11:39:49.574Z,2.30
2023-06-23T11:40:49.568Z,2.22
2023-06-23T11:41:49.599Z,2.15
2023-06-23T11:42:49.618Z,2.16
2023-06-23T11:43:49.686Z,2.10
2023-06-23T11:44:49.762Z,2.06
2023-06-23T11:45:49.741Z,1.93
2023-06-23T11:46:49.775Z,1.88
2023-06-23T11:47:49.954Z,1.85
2023-06-23T11:48:49.904Z,1.79
2023-06-23T11:49:49.979Z,1.83
2023-06-23T11:50:50.026Z,1.80
2023-06-23T11:51:50.088Z,1.72
2023-06-23T11:52:50.166Z,1.66
2023-06-23T11:53:50.232Z,1.60
2023-06-23T11:54:50.293Z,1.58
2023-06-23T11:55:50.363Z,1.60
2023-06-23T11:56:50.407Z,1.60
2023-06-23T11:57:50.472Z,1.54
2023-06-23T11:58:50.524Z,1.47
2023-06-23T11:59:50.594Z,1.41
2023-06-23T12:00:50.641Z,1.41
2023-06-23T12:01:50.716Z,1.38
2023-06-23T12:02:50.913Z,1.37
2023-06-23T12:03:51.153Z,1.30
2023-06-23T12:04:50.974Z,1.30
2023-06-23T12:05:50.812Z,1.25
2023-06-23T12:06:50.797Z,1.21
2023-06-23T12:07:50.818Z,1.24
2023-06-23T12:08:50.909Z,1.18
2023-06-23T12:09:52.535Z,1.17
2023-06-23T12:10:50.789Z,1.16
2023-06-23T12:11:50.821Z,1.15
2023-06-23T12:12:50.858Z,1.11
2023-06-23T12:13:50.841Z,1.12
2023-06-23T12:14:50.828Z,1.08
2023-06-23T12:15:54.221Z,1.06
2023-06-23T12:16:51.813Z,1.06
2023-06-23T12:17:50.829Z,1.00
2023-06-23T12:18:50.761Z,0.99
2023-06-23T12:19:52.759Z,0.99
2023-06-23T12:20:50.764Z,0.98
2023-06-23T12:21:50.764Z,0.96
2023-06-23T12:22:50.763Z,0.96
2023-06-23T12:23:50.771Z,0.94
2023-06-23T12:24:50.723Z,0.93
2023-06-23T12:25:50.738Z,0.92
2023-06-23T12:26:50.737Z,0.91
2023-06-23T12:27:50.722Z,0.87
2023-06-23T12:28:50.722Z,0.87
2023-06-23T12:29:50.702Z,0.86
2023-06-23T12:30:50.714Z,0.81
2023-06-23T12:31:50.794Z,0.80
2023-06-23T12:32:50.737Z,0.80
2023-06-23T12:33:50.786Z,0.77
2023-06-23T12:34:50.689Z,0.75
2023-06-23T12:37:07.868Z,0.50
2023-06-23T12:38:07.844Z,0.50
2023-06-23T12:39:07.835Z,0.50
2023-06-23T12:40:07.845Z,0.50
2023-06-23T12:41:07.819Z,0.50
2023-06-23T12:42:07.803Z,0.50
2023-06-23T12:43:07.778Z,0.51
2023-06-23T12:44:07.821Z,0.51
2023-06-23T12:45:07.797Z,0.51
2023-06-23T12:46:07.801Z,0.50
2023-06-23T12:47:07.781Z,0.52
2023-06-23T12:48:07.786Z,0.50
2023-06-23T12:49:07.768Z,0.51
2023-06-23T12:50:07.769Z,0.52
2023-06-23T12:51:07.769Z,0.50
2023-06-23T12:52:07.746Z,0.52
2023-06-23T12:53:07.762Z,0.51
2023-06-23T12:54:07.745Z,0.52
2023-06-23T12:55:07.739Z,0.50
2023-06-23T12:56:07.712Z,0.52
2023-06-23T12:57:07.719Z,0.52
2023-06-23T12:58:07.717Z,0.52
2023-06-23T12:59:07.671Z,0.53
2023-06-23T13:00:07.680Z,0.51
2023-06-23T13:01:07.685Z,0.51
2023-06-23T13:02:07.822Z,0.51
2023-06-23T13:03:11.302Z,0.51
2023-06-23T13:04:07.755Z,0.51
2023-06-23T13:05:07.678Z,0.51
2023-06-23T13:06:07.656Z,0.51
2023-06-23T13:07:07.636Z,0.50
2023-06-23T13:08:07.640Z,0.50
2023-06-23T13:09:07.636Z,0.50
2023-06-23T13:10:07.649Z,0.51
2023-06-23T13:11:07.619Z,0.50
2023-06-23T13:12:07.611Z,0.51
2023-06-23T13:13:07.608Z,0.52
2023-06-23T13:14:07.612Z,0.52
2023-06-23T13:15:07.600Z,0.52
2023-06-23T13:16:07.571Z,0.50
2023-06-23T13:17:07.591Z,0.51
2023-06-23T13:18:07.638Z,0.51
2023-06-23T13:19:07.584Z,0.51
2023-06-23T13:20:07.585Z,0.51
2023-06-23T13:21:07.571Z,0.50